Coloma, Michigan
Current Conditions -  °F | °C
As of 11:11 AM on Wednesday 26 Nov 2014 (Local Time) from KBEH Reporting Station
Overcast Overcast  
Wind Chill: 18°   Ceiling: 2300
Heat Index: 27°   Visibility: 8mi
Dew Point: 19°   Wind: 9mph
Humidity: 72%   Direction: 120°ESE
Pressure: 30.17"   Gusts: NA
Location:  42.19°N, 86.31°W
Report Text: KBEH 261611Z AUTO 12008KT 8SM BKN023 OVC030 M03/M07 A3017 RMK AO2 T10281072
Loading
Personal Weather Stations






























Interactive Weather Map New forecast layout! Learn more

10-Day Weather Forecast

Advertisements
Track Severe Weather on mobile